N30 weather

Cherry Ridge Airport
Honesdale, Pennsylvania, United States

Public forecast

Using degrees Fahrenheit for public forecast. Weather courtesy of forecast.io.

Closest aviation weather report (METAR) to Cherry Ridge Airport

Closest report is Sullivan County International Airport, 23.3 nm (43.2 km) ENE. Retrieved 2019/11/20 02:56 UTC (38 minutes ago):

KMSV 200256Z AUTO 34004KT 10SM OVC021 01/M02 A2986 RMK AO2 SLP123 T00111017 53004 FZRANO

Closest aviation forecast (TAF) to Cherry Ridge Airport

Closest forecast is Wilkes Barre Scranton International Airport, 23.7 nm (44.0 km) WSW. Retrieved 2019-11-20 00:39 UTC (3 hours ago):

TAF KAVP 192337Z 2000/2024 VRB03KT P6SM BKN035 FM200300 VRB03KT P6SM BKN080 FM201100 33005KT P6SM BKN025